Rock Hill, Missouri
Current Conditions -  °F | °C
As of 3:53 PM on Sunday 21 Dec 2014 (Local Time) from KCPS Reporting Station
Overcast Overcast  
Wind Chill:   Ceiling: 4200
Heat Index:   Visibility: 10mi
Dew Point:   Wind: 9mph
Humidity: 65%   Direction: 140°SE
Pressure: 30.04"   Gusts: NA
Location:  38.5887°N, 90.3511°W
Report Text: KCPS 212153Z 14008KT 10SM FEW032 OVC042 06/00 A3004 RMK AO2 SLP176 T00610000
Loading
Personal Weather Stations






























Interactive Weather Map New forecast layout! Learn more

10-Day Weather Forecast

Advertisements
Track Severe Weather on mobile